createdAt,value
2022-09-27T00:01:13.169Z,100.00
2022-09-27T00:03:41.992Z,100.00
2022-09-27T00:06:18.945Z,100.00
2022-09-27T00:08:46.552Z,100.00
2022-09-27T00:11:28.776Z,100.00
2022-09-27T00:13:57.789Z,100.00
2022-09-27T00:16:31.823Z,100.00
2022-09-27T00:19:08.036Z,100.00
2022-09-27T00:21:36.460Z,100.00
2022-09-27T00:24:04.791Z,100.00
2022-09-27T00:26:32.369Z,100.00
2022-09-27T00:28:59.822Z,100.00
2022-09-27T00:31:32.236Z,100.00
2022-09-27T00:34:02.415Z,100.00
2022-09-27T00:36:32.337Z,100.00
2022-09-27T00:39:01.183Z,100.00
2022-09-27T00:41:33.002Z,100.00
2022-09-27T00:44:04.632Z,100.00
2022-09-27T00:46:38.078Z,100.00
2022-09-27T00:49:17.949Z,100.00
2022-09-27T00:51:50.205Z,100.00
2022-09-27T00:54:20.167Z,100.00
2022-09-27T00:56:49.861Z,100.00
2022-09-27T00:59:25.896Z,100.00
2022-09-27T01:01:54.025Z,100.00
2022-09-27T01:04:30.858Z,100.00
2022-09-27T01:06:58.623Z,100.00
2022-09-27T01:09:27.549Z,100.00
2022-09-27T01:12:11.016Z,100.00
2022-09-27T01:14:46.074Z,100.00
2022-09-27T01:17:44.172Z,100.00
2022-09-27T01:20:24.400Z,100.00
2022-09-27T01:23:43.179Z,100.00
2022-09-27T01:26:30.345Z,100.00
2022-09-27T01:29:08.055Z,100.00
2022-09-27T01:31:50.135Z,100.00
2022-09-27T01:34:36.239Z,100.00
2022-09-27T01:37:08.126Z,100.00
2022-09-27T01:40:02.644Z,100.00
2022-09-27T01:42:38.429Z,100.00
2022-09-27T01:45:15.591Z,100.00
2022-09-27T01:48:02.416Z,100.00
2022-09-27T01:51:04.554Z,100.00
2022-09-27T01:53:43.909Z,100.00
2022-09-27T01:56:54.819Z,100.00
2022-09-27T01:59:31.143Z,100.00
2022-09-27T02:02:12.438Z,100.00
2022-09-27T02:05:10.448Z,100.00
2022-09-27T02:07:47.893Z,100.00
2022-09-27T02:10:21.646Z,100.00
2022-09-27T02:13:23.136Z,100.00
2022-09-27T02:16:24.943Z,100.00
2022-09-27T02:19:02.000Z,100.00
2022-09-27T02:21:52.873Z,100.00
2022-09-27T02:24:30.252Z,100.00
2022-09-27T02:27:07.236Z,100.00
2022-09-27T02:29:41.046Z,100.00
2022-09-27T02:32:09.676Z,100.00
2022-09-27T02:34:41.130Z,100.00
2022-09-27T02:37:08.979Z,100.00
2022-09-27T02:39:36.904Z,100.00
2022-09-27T02:42:07.948Z,100.00
2022-09-27T02:44:38.398Z,100.00
2022-09-27T02:47:31.318Z,100.00
2022-09-27T02:50:14.260Z,100.00
2022-09-27T02:53:16.383Z,100.00
2022-09-27T02:56:08.820Z,100.00
2022-09-27T02:59:25.031Z,100.00
2022-09-27T03:02:29.794Z,100.00
2022-09-27T03:05:27.664Z,100.00
2022-09-27T03:07:55.817Z,100.00
2022-09-27T03:10:27.405Z,100.00
2022-09-27T03:12:56.853Z,100.00
2022-09-27T03:15:24.953Z,100.00
2022-09-27T03:18:12.752Z,100.00
2022-09-27T03:21:02.995Z,100.00
2022-09-27T03:23:31.039Z,100.00
2022-09-27T03:25:58.919Z,100.00
2022-09-27T03:28:26.661Z,100.00
2022-09-27T03:30:54.301Z,100.00
2022-09-27T03:33:48.894Z,100.00
2022-09-27T03:36:16.454Z,100.00
2022-09-27T03:38:44.006Z,100.00
2022-09-27T03:41:16.025Z,100.00
2022-09-27T03:43:44.068Z,100.00
2022-09-27T03:46:12.279Z,100.00
2022-09-27T03:48:42.012Z,100.00
2022-09-27T03:51:12.322Z,100.00
2022-09-27T03:53:40.056Z,100.00
2022-09-27T03:56:07.654Z,100.00
2022-09-27T03:58:35.914Z,100.00
2022-09-27T04:01:04.021Z,100.00
2022-09-27T04:03:33.618Z,100.00
2022-09-27T04:06:23.048Z,100.00
2022-09-27T04:08:51.276Z,100.00
2022-09-27T04:11:20.495Z,100.00
2022-09-27T04:13:49.235Z,100.00
2022-09-27T04:16:19.120Z,100.00
2022-09-27T04:18:53.577Z,100.00
2022-09-27T04:21:44.824Z,100.00
2022-09-27T04:24:14.999Z,100.00
2022-09-27T04:26:53.390Z,100.00
2022-09-27T04:29:27.096Z,100.00
2022-09-27T04:31:56.075Z,100.00
2022-09-27T04:35:06.409Z,100.00
2022-09-27T04:37:34.080Z,100.00
2022-09-27T04:40:04.669Z,100.00
2022-09-27T04:42:34.112Z,100.00
2022-09-27T04:45:02.165Z,100.00
2022-09-27T04:47:30.335Z,100.00
2022-09-27T04:49:58.421Z,100.00
2022-09-27T04:52:26.227Z,100.00
2022-09-27T04:54:53.915Z,100.00
2022-09-27T04:57:21.789Z,100.00
2022-09-27T04:59:51.807Z,100.00
2022-09-27T05:02:19.546Z,100.00
2022-09-27T05:05:10.588Z,100.00
2022-09-27T05:07:41.713Z,100.00
2022-09-27T05:10:14.912Z,100.00
2022-09-27T05:12:42.919Z,100.00
2022-09-27T05:15:13.254Z,100.00
2022-09-27T05:17:40.845Z,100.00
2022-09-27T05:20:45.097Z,100.00
2022-09-27T05:23:23.803Z,100.00
2022-09-27T05:25:55.794Z,100.00
2022-09-27T05:28:24.451Z,100.00
2022-09-27T05:30:52.437Z,100.00
2022-09-27T05:33:22.110Z,100.00
2022-09-27T05:35:57.299Z,100.00
2022-09-27T05:38:28.549Z,100.00
2022-09-27T05:40:59.076Z,100.00
2022-09-27T05:43:28.418Z,100.00
2022-09-27T05:46:00.911Z,100.00
2022-09-27T05:48:30.500Z,100.00
2022-09-27T05:51:02.827Z,100.00
2022-09-27T05:53:32.505Z,100.00
2022-09-27T05:56:03.425Z,100.00
2022-09-27T05:58:42.810Z,100.00
2022-09-27T06:01:15.433Z,100.00
2022-09-27T06:04:19.036Z,100.00
2022-09-27T06:07:16.255Z,100.00
2022-09-27T06:09:44.460Z,100.00
2022-09-27T06:12:13.653Z,100.00
2022-09-27T06:14:41.266Z,100.00
2022-09-27T06:17:13.840Z,100.00
2022-09-27T06:19:44.829Z,100.00
2022-09-27T06:22:13.064Z,100.00
2022-09-27T06:24:53.674Z,100.00
2022-09-27T06:27:26.375Z,100.00
2022-09-27T06:30:00.819Z,100.00
2022-09-27T06:32:55.960Z,100.00
2022-09-27T06:35:32.412Z,100.00
2022-09-27T06:38:04.744Z,100.00
2022-09-27T06:40:33.658Z,100.00
2022-09-27T06:43:34.219Z,100.00
2022-09-27T06:46:04.826Z,100.00
2022-09-27T06:48:47.365Z,100.00
2022-09-27T06:51:16.526Z,100.00
2022-09-27T06:53:44.799Z,100.00
2022-09-27T06:56:12.836Z,100.00
2022-09-27T06:59:08.786Z,100.00
2022-09-27T07:01:45.627Z,100.00
2022-09-27T07:04:52.261Z,100.00
2022-09-27T07:07:51.318Z,100.00
2022-09-27T07:10:18.864Z,100.00
2022-09-27T07:12:48.882Z,100.00
2022-09-27T07:15:17.938Z,100.00
2022-09-27T07:17:47.193Z,100.00
2022-09-27T07:20:15.230Z,100.00
2022-09-27T07:22:45.177Z,100.00
2022-09-27T07:25:14.395Z,100.00
2022-09-27T07:27:42.115Z,100.00
2022-09-27T07:30:12.042Z,100.00
2022-09-27T07:32:40.235Z,100.00
2022-09-27T07:35:12.038Z,100.00
2022-09-27T07:37:39.826Z,100.00
2022-09-27T07:40:09.641Z,97.37
2022-09-27T07:42:42.172Z,93.39
2022-09-27T07:45:11.727Z,89.74
2022-09-27T07:47:57.661Z,89.33
2022-09-27T07:50:54.430Z,89.41
2022-09-27T07:53:44.736Z,83.03
2022-09-27T07:56:31.136Z,80.79
2022-09-27T07:58:59.385Z,81.25
2022-09-27T08:01:27.524Z,83.98
2022-09-27T08:03:55.690Z,85.38
2022-09-27T08:06:30.982Z,82.71
2022-09-27T08:09:09.826Z,80.40
2022-09-27T08:11:39.020Z,81.25
2022-09-27T08:14:09.335Z,79.53
2022-09-27T08:16:36.981Z,76.26
2022-09-27T08:19:24.097Z,75.00
2022-09-27T08:22:14.921Z,74.78
2022-09-27T08:24:48.855Z,70.54
2022-09-27T08:27:43.530Z,70.98
2022-09-27T08:30:20.811Z,69.77
2022-09-27T08:32:48.714Z,69.44
2022-09-27T08:35:16.506Z,72.62
2022-09-27T08:37:53.773Z,70.39
2022-09-27T08:40:24.332Z,67.06
2022-09-27T08:43:02.722Z,70.62
2022-09-27T08:45:47.753Z,67.80
2022-09-27T08:48:17.781Z,70.82
2022-09-27T08:50:48.310Z,71.11
2022-09-27T08:53:55.734Z,66.38
2022-09-27T08:56:44.059Z,62.99
2022-09-27T08:59:21.842Z,53.40
2022-09-27T09:01:51.695Z,54.31
2022-09-27T09:04:40.197Z,48.56
2022-09-27T09:07:44.745Z,52.49
2022-09-27T09:10:43.242Z,50.50
2022-09-27T09:13:26.014Z,48.08
2022-09-27T09:16:04.032Z,44.53
2022-09-27T09:18:47.034Z,41.51
2022-09-27T09:21:34.164Z,42.06
2022-09-27T09:24:17.545Z,42.62
2022-09-27T09:26:58.212Z,43.66
2022-09-27T09:29:53.127Z,42.99
2022-09-27T09:32:23.838Z,41.77
2022-09-27T09:35:16.130Z,43.59
2022-09-27T09:37:49.403Z,42.46
2022-09-27T09:40:27.272Z,41.51
2022-09-27T09:43:14.093Z,43.06
2022-09-27T09:45:47.306Z,44.30
2022-09-27T09:48:15.430Z,43.26
2022-09-27T09:50:50.766Z,41.75
2022-09-27T09:53:43.577Z,40.80
2022-09-27T09:56:15.290Z,40.03
2022-09-27T09:58:56.098Z,39.35
2022-09-27T10:01:43.210Z,38.26
2022-09-27T10:04:21.193Z,37.92
2022-09-27T10:06:49.874Z,38.97
2022-09-27T10:09:24.217Z,39.76
2022-09-27T10:12:10.830Z,41.77
2022-09-27T10:14:39.959Z,44.42
2022-09-27T10:17:14.812Z,43.10
2022-09-27T10:19:43.118Z,41.00
2022-09-27T10:22:18.355Z,36.50
2022-09-27T10:25:02.570Z,36.57
2022-09-27T10:28:06.654Z,34.82
2022-09-27T10:30:38.522Z,37.56
2022-09-27T10:33:19.891Z,37.86
2022-09-27T10:35:53.621Z,37.29
2022-09-27T10:38:36.652Z,33.04
2022-09-27T10:41:41.689Z,31.61
2022-09-27T10:44:32.865Z,32.54
2022-09-27T10:47:27.098Z,32.53
2022-09-27T10:50:49.516Z,33.94
2022-09-27T10:53:35.541Z,34.85
2022-09-27T10:56:24.558Z,34.70
2022-09-27T10:58:53.594Z,32.19
2022-09-27T11:01:23.493Z,32.91
2022-09-27T11:04:07.135Z,31.75
2022-09-27T11:06:38.385Z,32.48
2022-09-27T11:09:19.098Z,31.80
2022-09-27T11:11:49.407Z,32.86
2022-09-27T11:14:25.298Z,31.03
2022-09-27T11:17:17.874Z,32.36
2022-09-27T11:19:51.418Z,34.41
2022-09-27T11:22:50.402Z,34.79
2022-09-27T11:25:49.620Z,35.15
2022-09-27T11:28:29.935Z,34.44
2022-09-27T11:31:25.318Z,38.62
2022-09-27T11:34:18.519Z,37.36
2022-09-27T11:37:10.714Z,33.82
2022-09-27T11:40:05.359Z,32.47
2022-09-27T11:42:34.643Z,31.60
2022-09-27T11:45:41.075Z,31.11
2022-09-27T11:48:21.120Z,34.73
2022-09-27T11:50:56.648Z,32.94
2022-09-27T11:54:03.477Z,31.23
2022-09-27T11:56:48.856Z,31.48
2022-09-27T11:59:53.917Z,30.48
2022-09-27T12:02:56.053Z,29.32
2022-09-27T12:05:40.469Z,32.11
2022-09-27T12:08:44.244Z,31.24
2022-09-27T12:11:36.536Z,33.29
2022-09-27T12:14:21.632Z,31.35
2022-09-27T12:16:56.177Z,31.30
2022-09-27T12:19:37.148Z,29.55
2022-09-27T12:22:15.732Z,30.78
2022-09-27T12:24:46.909Z,30.15
2022-09-27T12:27:49.332Z,30.86
2022-09-27T12:30:20.570Z,28.86
2022-09-27T12:33:11.373Z,30.35
2022-09-27T12:35:56.624Z,29.09
2022-09-27T12:38:47.107Z,28.49
2022-09-27T12:41:19.977Z,28.73
2022-09-27T12:44:12.886Z,29.83
2022-09-27T12:47:34.299Z,33.09
2022-09-27T12:50:07.546Z,31.61
2022-09-27T12:52:41.701Z,29.38
2022-09-27T12:55:39.610Z,27.67
2022-09-27T12:58:28.156Z,26.53
2022-09-27T13:01:24.038Z,26.46
2022-09-27T13:04:20.811Z,26.96
2022-09-27T13:07:05.785Z,27.46
2022-09-27T13:10:10.383Z,26.30
2022-09-27T13:12:41.767Z,26.05
2022-09-27T13:15:25.943Z,23.68
2022-09-27T13:17:56.990Z,21.97
2022-09-27T13:20:42.681Z,22.14
2022-09-27T13:23:31.861Z,23.69
2022-09-27T13:26:35.851Z,24.95
2022-09-27T13:29:25.546Z,22.71
2022-09-27T13:31:54.247Z,22.33
2022-09-27T13:34:49.750Z,21.48
2022-09-27T13:37:44.709Z,22.17
2022-09-27T13:40:16.648Z,21.18
2022-09-27T13:43:16.428Z,22.57
2022-09-27T13:46:15.933Z,24.87
2022-09-27T13:48:59.154Z,27.47
2022-09-27T13:51:47.993Z,25.31
2022-09-27T13:54:34.711Z,22.88
2022-09-27T13:57:07.670Z,22.04
2022-09-27T13:59:52.543Z,21.67
2022-09-27T14:03:16.160Z,19.91
2022-09-27T14:06:00.311Z,19.21
2022-09-27T14:08:35.186Z,19.22
2022-09-27T14:11:10.748Z,17.94
2022-09-27T14:13:41.388Z,19.16
2022-09-27T14:16:15.622Z,20.30
2022-09-27T14:18:55.149Z,19.78
2022-09-27T14:21:37.870Z,20.60
2022-09-27T14:24:23.151Z,20.39
2022-09-27T14:27:23.871Z,20.12
2022-09-27T14:30:08.699Z,24.18
2022-09-27T14:32:48.085Z,25.71
2022-09-27T14:35:43.599Z,23.19
2022-09-27T14:38:36.124Z,22.39
2022-09-27T14:41:07.946Z,21.86
2022-09-27T14:43:42.009Z,22.61
2022-09-27T14:46:26.465Z,20.77
2022-09-27T14:48:55.663Z,20.14
2022-09-27T14:51:30.089Z,20.72
2022-09-27T14:54:01.171Z,20.52
2022-09-27T14:56:35.171Z,26.19
2022-09-27T14:59:09.094Z,30.28
2022-09-27T15:01:39.798Z,29.19
2022-09-27T15:04:12.325Z,29.18
2022-09-27T15:06:40.763Z,29.83
2022-09-27T15:09:14.239Z,31.21
2022-09-27T15:11:43.084Z,32.59
2022-09-27T15:14:15.575Z,34.64
2022-09-27T15:16:46.256Z,36.99
2022-09-27T15:19:18.827Z,37.89
2022-09-27T15:21:46.818Z,39.12
2022-09-27T15:24:38.781Z,39.05
2022-09-27T15:27:24.330Z,40.49
2022-09-27T15:29:55.655Z,40.23
2022-09-27T15:32:28.090Z,41.12
2022-09-27T15:34:57.514Z,41.31
2022-09-27T15:37:35.320Z,41.07
2022-09-27T15:40:44.431Z,41.67
2022-09-27T15:43:30.952Z,41.88
2022-09-27T15:46:26.354Z,41.85
2022-09-27T15:49:22.634Z,42.41
2022-09-27T15:51:56.009Z,43.04
2022-09-27T15:54:25.084Z,42.75
2022-09-27T15:56:56.161Z,42.06
2022-09-27T15:59:28.743Z,42.05
2022-09-27T16:02:10.143Z,41.79
2022-09-27T16:04:37.695Z,40.99
2022-09-27T16:07:05.458Z,41.13
2022-09-27T16:09:33.139Z,42.22
2022-09-27T16:12:00.994Z,43.16
2022-09-27T16:14:28.546Z,44.59
2022-09-27T16:17:01.019Z,45.49
2022-09-27T16:19:28.860Z,46.31
2022-09-27T16:21:56.552Z,47.04
2022-09-27T16:24:25.654Z,48.52
2022-09-27T16:26:53.141Z,48.87
2022-09-27T16:29:21.114Z,49.83
2022-09-27T16:31:48.975Z,50.86
2022-09-27T16:34:17.611Z,49.56
2022-09-27T16:36:45.340Z,49.49
2022-09-27T16:39:14.218Z,50.42
2022-09-27T16:41:42.404Z,50.86
2022-09-27T16:44:12.862Z,52.52
2022-09-27T16:46:47.973Z,55.18
2022-09-27T16:49:34.870Z,59.41
2022-09-27T16:52:02.929Z,60.24
2022-09-27T16:54:31.462Z,60.25
2022-09-27T16:57:00.014Z,58.90
2022-09-27T16:59:28.001Z,61.26
2022-09-27T17:01:57.493Z,61.05
2022-09-27T17:04:27.742Z,62.06
2022-09-27T17:06:56.372Z,62.88
2022-09-27T17:09:25.157Z,63.90
2022-09-27T17:11:52.830Z,64.74
2022-09-27T17:14:21.666Z,63.95
2022-09-27T17:16:51.024Z,65.48
2022-09-27T17:19:19.084Z,66.01
2022-09-27T17:21:47.031Z,67.11
2022-09-27T17:24:14.694Z,67.69
2022-09-27T17:26:42.913Z,68.62
2022-09-27T17:29:12.579Z,69.07
2022-09-27T17:31:42.660Z,72.01
2022-09-27T17:34:12.970Z,73.51
2022-09-27T17:36:44.323Z,73.69
2022-09-27T17:39:13.401Z,75.20
2022-09-27T17:41:41.494Z,75.27
2022-09-27T17:44:13.044Z,76.42
2022-09-27T17:46:42.099Z,76.20
2022-09-27T17:49:30.209Z,77.47
2022-09-27T17:51:57.916Z,78.76
2022-09-27T17:54:28.371Z,78.21
2022-09-27T17:56:56.578Z,79.15
2022-09-27T17:59:24.237Z,80.38
2022-09-27T18:01:53.289Z,82.23
2022-09-27T18:04:21.540Z,83.99
2022-09-27T18:06:50.132Z,84.77
2022-09-27T18:09:18.865Z,86.17
2022-09-27T18:11:46.500Z,87.51
2022-09-27T18:14:14.531Z,88.23
2022-09-27T18:16:44.261Z,88.94
2022-09-27T18:19:14.847Z,89.76
2022-09-27T18:21:43.431Z,90.39
2022-09-27T18:24:11.787Z,89.63
2022-09-27T18:26:40.380Z,89.48
2022-09-27T18:29:12.665Z,90.58
2022-09-27T18:31:47.514Z,92.40
2022-09-27T18:34:19.245Z,95.16
2022-09-27T18:36:47.017Z,95.75
2022-09-27T18:39:19.961Z,96.54
2022-09-27T18:41:49.285Z,97.37
2022-09-27T18:44:18.044Z,97.74
2022-09-27T18:46:46.355Z,98.08
2022-09-27T18:49:14.717Z,99.23
2022-09-27T18:51:44.853Z,99.45
2022-09-27T18:54:20.652Z,99.06
2022-09-27T18:56:52.023Z,99.03
2022-09-27T18:59:21.452Z,98.46
2022-09-27T19:01:49.006Z,97.89
2022-09-27T19:04:26.825Z,96.84
2022-09-27T19:06:56.641Z,96.27
2022-09-27T19:09:26.659Z,95.81
2022-09-27T19:11:54.410Z,94.00
2022-09-27T19:14:22.765Z,93.69
2022-09-27T19:16:51.049Z,93.21
2022-09-27T19:19:20.346Z,92.79
2022-09-27T19:21:49.009Z,92.62
2022-09-27T19:24:18.872Z,91.18
2022-09-27T19:26:46.503Z,91.54
2022-09-27T19:29:14.928Z,91.46
2022-09-27T19:31:43.011Z,91.38
2022-09-27T19:34:11.465Z,91.10
2022-09-27T19:36:39.605Z,91.84
2022-09-27T19:39:07.993Z,91.53
2022-09-27T19:41:36.413Z,91.10
2022-09-27T19:44:04.019Z,90.66
2022-09-27T19:46:32.019Z,90.71
2022-09-27T19:49:00.456Z,90.37
2022-09-27T19:51:28.877Z,91.09
2022-09-27T19:53:56.970Z,91.59
2022-09-27T19:56:25.098Z,92.35
2022-09-27T19:58:53.271Z,92.67
2022-09-27T20:01:23.373Z,92.56
2022-09-27T20:03:53.498Z,92.91
2022-09-27T20:06:22.266Z,93.90
2022-09-27T20:08:50.433Z,94.48
2022-09-27T20:11:20.068Z,95.16
2022-09-27T20:13:48.475Z,95.16
2022-09-27T20:16:18.768Z,95.46
2022-09-27T20:18:49.048Z,95.75
2022-09-27T20:21:17.998Z,96.68
2022-09-27T20:23:49.645Z,96.26
2022-09-27T20:26:18.920Z,97.52
2022-09-27T20:28:49.074Z,98.71
2022-09-27T20:31:19.223Z,98.69
2022-09-27T20:33:49.707Z,100.00
2022-09-27T20:36:19.129Z,100.00
2022-09-27T20:39:02.257Z,100.00
2022-09-27T20:41:33.106Z,100.00
2022-09-27T20:44:06.234Z,100.00
2022-09-27T20:46:35.701Z,100.00
2022-09-27T20:49:07.049Z,100.00
2022-09-27T20:51:37.770Z,100.00
2022-09-27T20:54:08.235Z,100.00
2022-09-27T20:56:41.234Z,100.00
2022-09-27T20:59:35.274Z,100.00
2022-09-27T21:02:03.107Z,100.00
2022-09-27T21:04:31.764Z,100.00
2022-09-27T21:06:59.409Z,100.00
2022-09-27T21:09:27.396Z,100.00
2022-09-27T21:11:55.055Z,100.00
2022-09-27T21:14:22.680Z,100.00
2022-09-27T21:16:50.439Z,100.00
2022-09-27T21:19:18.098Z,100.00
2022-09-27T21:21:46.470Z,100.00
2022-09-27T21:24:14.302Z,100.00
2022-09-27T21:26:41.791Z,100.00
2022-09-27T21:29:11.712Z,100.00
2022-09-27T21:31:39.413Z,100.00
2022-09-27T21:34:07.514Z,100.00
2022-09-27T21:36:39.719Z,100.00
2022-09-27T21:39:09.107Z,100.00
2022-09-27T21:41:38.988Z,100.00
2022-09-27T21:44:08.083Z,100.00
2022-09-27T21:46:39.648Z,100.00
2022-09-27T21:49:07.343Z,100.00
2022-09-27T21:51:39.057Z,100.00
2022-09-27T21:54:10.126Z,100.00
2022-09-27T21:56:40.285Z,100.00
2022-09-27T21:59:12.843Z,100.00
2022-09-27T22:01:43.049Z,100.00
2022-09-27T22:04:10.654Z,100.00
2022-09-27T22:06:39.549Z,100.00
2022-09-27T22:09:11.322Z,100.00
2022-09-27T22:11:44.068Z,100.00
2022-09-27T22:14:13.072Z,100.00
2022-09-27T22:16:41.590Z,100.00
2022-09-27T22:19:12.285Z,100.00
2022-09-27T22:21:40.488Z,100.00
2022-09-27T22:24:17.253Z,100.00
2022-09-27T22:26:51.902Z,100.00
2022-09-27T22:29:20.123Z,100.00
2022-09-27T22:31:47.840Z,100.00
2022-09-27T22:34:18.821Z,100.00
2022-09-27T22:36:47.313Z,100.00
2022-09-27T22:39:15.438Z,100.00
2022-09-27T22:41:43.438Z,100.00
2022-09-27T22:44:11.634Z,100.00
2022-09-27T22:46:39.196Z,100.00
2022-09-27T22:49:06.732Z,100.00
2022-09-27T22:51:34.788Z,100.00
2022-09-27T22:54:02.873Z,100.00
2022-09-27T22:56:30.864Z,100.00
2022-09-27T22:58:58.391Z,100.00
2022-09-27T23:01:26.532Z,100.00
2022-09-27T23:03:55.371Z,100.00
2022-09-27T23:06:23.389Z,100.00
2022-09-27T23:08:51.725Z,100.00
2022-09-27T23:11:22.233Z,100.00
2022-09-27T23:13:50.920Z,100.00
2022-09-27T23:16:24.341Z,100.00
2022-09-27T23:18:54.295Z,100.00
2022-09-27T23:21:24.274Z,100.00
2022-09-27T23:23:53.462Z,100.00
2022-09-27T23:26:24.203Z,100.00
2022-09-27T23:28:56.711Z,100.00
2022-09-27T23:31:25.438Z,100.00
2022-09-27T23:33:53.055Z,100.00
2022-09-27T23:36:26.225Z,100.00
2022-09-27T23:38:58.150Z,100.00
2022-09-27T23:41:26.306Z,100.00
2022-09-27T23:43:54.303Z,100.00
2022-09-27T23:46:21.933Z,100.00
2022-09-27T23:48:49.650Z,100.00
2022-09-27T23:51:17.262Z,100.00
2022-09-27T23:53:44.781Z,100.00
2022-09-27T23:56:15.426Z,100.00
2022-09-27T23:58:45.160Z,100.00
